createdAt,value
2022-12-05T00:00:40.306Z,24.8
2022-12-05T00:05:47.317Z,24.3
2022-12-05T00:11:10.198Z,24.1
2022-12-05T00:16:32.871Z,23.8
2022-12-05T00:22:10.802Z,23.6
2022-12-05T00:27:48.670Z,23.4
2022-12-05T00:33:10.837Z,23.4
2022-12-05T00:38:46.950Z,24.4
2022-12-05T00:44:32.415Z,25.1
2022-12-05T00:49:55.559Z,24.4
2022-12-05T00:55:32.953Z,24
2022-12-05T01:01:11.364Z,23.6
2022-12-05T01:06:34.466Z,23.4
2022-12-05T01:12:15.684Z,23.5
2022-12-05T01:17:23.153Z,24.5
2022-12-05T01:23:00.919Z,25.1
2022-12-05T01:28:23.366Z,24.4
2022-12-05T01:34:01.980Z,23.7
2022-12-05T01:39:24.488Z,23.5
2022-12-05T01:44:51.127Z,23.3
2022-12-05T01:50:14.060Z,23.2
2022-12-05T01:55:36.889Z,23.4
2022-12-05T02:01:14.179Z,24.6
2022-12-05T02:06:37.656Z,25.2
2022-12-05T02:12:00.516Z,24.3
2022-12-05T02:17:24.989Z,23.8
2022-12-05T02:23:03.139Z,23.5
2022-12-05T02:28:40.265Z,23.3
2022-12-05T02:34:02.139Z,23.3
2022-12-05T02:39:39.540Z,24.5
2022-12-05T02:45:17.507Z,25.4
2022-12-05T02:50:55.450Z,24.6
2022-12-05T02:56:33.341Z,23.9
2022-12-05T03:02:11.031Z,23.5
2022-12-05T03:07:48.827Z,23.3
2022-12-05T03:13:11.550Z,23.4
2022-12-05T03:18:49.812Z,24.6
2022-12-05T03:24:27.826Z,25.4
2022-12-05T03:29:50.328Z,24.5
2022-12-05T03:35:27.940Z,23.9
2022-12-05T03:40:50.424Z,23.4
2022-12-05T03:46:29.813Z,23.2
2022-12-05T03:51:52.048Z,23.2
2022-12-05T03:58:04.768Z,24.5
2022-12-05T04:03:26.972Z,25.4
2022-12-05T04:09:05.583Z,24.6
2022-12-05T04:14:43.474Z,23.9
2022-12-05T04:20:22.911Z,23.4
2022-12-05T04:25:30.189Z,23.1
2022-12-05T04:30:52.702Z,23
2022-12-05T04:36:15.801Z,23.4
2022-12-05T04:41:28.515Z,24.6
2022-12-05T04:46:19.476Z,25.3
2022-12-05T04:52:03.370Z,24.6
2022-12-05T04:57:31.809Z,23.9
2022-12-05T05:03:09.446Z,23.4
2022-12-05T05:08:53.180Z,23.3
2022-12-05T05:14:32.459Z,23.2
2022-12-05T05:20:09.801Z,23.9
2022-12-05T05:25:47.776Z,24.3
2022-12-05T05:31:12.430Z,23.4
2022-12-05T05:36:55.534Z,23.1
2022-12-05T05:42:40.241Z,22.8
2022-12-05T05:48:18.050Z,22.6
2022-12-05T05:54:02.332Z,22.5
2022-12-05T05:59:34.260Z,22.4
2022-12-05T06:04:58.380Z,23.2
2022-12-05T06:10:41.278Z,24.4
2022-12-05T06:16:18.961Z,24.1
2022-12-05T06:22:03.358Z,23.5
2022-12-05T06:27:40.822Z,23
2022-12-05T06:33:23.832Z,22.8
2022-12-05T06:39:01.538Z,22.5
2022-12-05T06:44:39.262Z,22.4
2022-12-05T06:50:06.640Z,22.8
2022-12-05T06:55:44.387Z,24.1
2022-12-05T07:01:22.673Z,24.4
2022-12-05T07:07:07.421Z,23.7
2022-12-05T07:12:45.743Z,22.9
2022-12-05T07:18:49.293Z,22.6
2022-12-05T07:25:01.522Z,22.3
2022-12-05T07:30:46.459Z,22.1
2022-12-05T07:36:08.608Z,22.3
2022-12-05T07:41:47.796Z,23.6
2022-12-05T07:47:25.976Z,24.3
2022-12-05T07:53:05.801Z,23.5
2022-12-05T07:58:44.666Z,23.1
2022-12-05T08:04:27.094Z,22.8
2022-12-05T08:10:05.947Z,22.6
2022-12-05T08:15:49.644Z,22.4
2022-12-05T08:21:15.156Z,22.6
2022-12-05T08:26:52.725Z,23.6
2022-12-05T08:32:15.845Z,24.1
2022-12-05T08:37:57.251Z,23.4
2022-12-05T08:43:36.813Z,23
2022-12-05T08:49:19.678Z,22.7
2022-12-05T08:54:57.305Z,22.4
2022-12-05T09:00:45.316Z,22.4
2022-12-05T09:06:50.249Z,23.1
2022-12-05T09:12:28.749Z,24.4
2022-12-05T09:18:08.466Z,23.9
2022-12-05T09:23:50.172Z,23.3
2022-12-05T09:29:34.133Z,23
2022-12-05T09:35:11.729Z,22.8
2022-12-05T09:41:18.903Z,22.5
2022-12-05T09:46:58.124Z,22.5
2022-12-05T09:52:40.165Z,23.5
2022-12-05T09:58:24.253Z,23.8
2022-12-05T10:04:02.614Z,23.5
2022-12-05T10:09:48.004Z,22.9
2022-12-05T10:15:26.181Z,22.9
2022-12-05T10:21:07.748Z,22.6
2022-12-05T10:27:20.295Z,22.5
2022-12-05T10:33:09.445Z,22.8
2022-12-05T10:38:47.981Z,24.2
2022-12-05T10:44:31.223Z,24.5
2022-12-05T10:50:15.084Z,23.6
2022-12-05T10:56:21.871Z,22.8
2022-12-05T11:02:19.172Z,22.9
2022-12-05T11:07:57.856Z,22.9
2022-12-05T11:14:08.236Z,23.1
2022-12-05T11:19:53.396Z,24.3
2022-12-05T11:25:34.897Z,24.3
2022-12-05T11:31:17.311Z,23.6
2022-12-05T11:36:56.041Z,23.3
2022-12-05T11:42:25.696Z,22.9
2022-12-05T11:47:52.060Z,22.6
2022-12-05T11:53:31.490Z,22.6
2022-12-05T11:59:48.697Z,23.7
2022-12-05T12:05:30.662Z,24.3
2022-12-05T12:11:14.087Z,23.7
2022-12-05T12:16:58.670Z,23.3
2022-12-05T12:22:42.122Z,23
2022-12-05T12:28:22.316Z,22.8
2022-12-05T12:33:46.422Z,22.4
2022-12-05T12:39:25.735Z,23.7
2022-12-05T12:45:33.150Z,24.7
2022-12-05T12:51:18.163Z,23.8
2022-12-05T12:57:35.581Z,23.4
2022-12-05T13:03:14.006Z,23.1
2022-12-05T13:08:57.511Z,22.8
2022-12-05T13:14:23.979Z,22.5
2022-12-05T13:19:50.805Z,24.2
2022-12-05T13:25:34.060Z,25
2022-12-05T13:31:03.871Z,24.1
2022-12-05T13:36:46.947Z,23.4
2022-12-05T13:42:25.607Z,23.3
2022-12-05T13:48:19.583Z,22.9
2022-12-05T13:54:03.326Z,23
2022-12-05T13:59:47.140Z,24.5
2022-12-05T14:05:30.348Z,25.3
2022-12-05T14:11:08.060Z,24
2022-12-05T14:16:51.198Z,23.1
2022-12-05T14:22:36.329Z,23.1
2022-12-05T14:28:27.254Z,22.8
2022-12-05T14:34:05.679Z,22.9
2022-12-05T14:39:46.722Z,24.4
2022-12-05T14:45:31.757Z,24.9
2022-12-05T14:51:02.127Z,24
2022-12-05T14:56:32.094Z,23.6
2022-12-05T15:02:12.098Z,23.3
2022-12-05T15:07:55.541Z,22.9
2022-12-05T15:14:06.543Z,23.4
2022-12-05T15:19:45.463Z,25
2022-12-05T15:25:27.959Z,24.6
2022-12-05T15:31:21.731Z,23.8
2022-12-05T15:36:59.463Z,23.4
2022-12-05T15:42:47.092Z,23.1
2022-12-05T15:48:28.562Z,22.6
2022-12-05T15:54:06.434Z,24
2022-12-05T15:59:53.465Z,24.9
2022-12-05T16:05:36.752Z,24.1
2022-12-05T16:11:19.882Z,23.6
2022-12-05T16:17:33.235Z,22.1
2022-12-05T16:23:01.174Z,21.2
2022-12-05T16:28:38.959Z,21.9
2022-12-05T16:34:18.144Z,22.9
2022-12-05T16:39:56.196Z,22.3
2022-12-05T16:45:41.930Z,21.6
2022-12-05T16:51:26.072Z,21.3
2022-12-05T16:56:33.284Z,21.5
2022-12-05T17:01:57.938Z,22
2022-12-05T17:08:08.274Z,22.8
2022-12-05T17:13:49.234Z,24.6
2022-12-05T17:19:18.248Z,24.5
2022-12-05T17:24:56.315Z,23.8
2022-12-05T17:30:09.412Z,23.4
2022-12-05T17:35:47.584Z,23.1
2022-12-05T17:41:25.971Z,22.8
2022-12-05T17:47:08.225Z,23.6
2022-12-05T17:52:56.947Z,24.9
2022-12-05T17:58:19.043Z,24.4
2022-12-05T18:03:41.796Z,23.8
2022-12-05T18:09:08.555Z,23.3
2022-12-05T18:14:30.357Z,23.1
2022-12-05T18:19:27.624Z,22.8
2022-12-05T18:24:36.403Z,24
2022-12-05T18:30:17.374Z,25.3
2022-12-05T18:35:46.742Z,24.4
2022-12-05T18:41:24.461Z,23.7
2022-12-05T18:46:48.062Z,23.3
2022-12-05T18:52:57.574Z,22.9
2022-12-05T18:59:39.979Z,22.9
2022-12-05T19:05:22.430Z,24.6
2022-12-05T19:11:00.796Z,24.9
2022-12-05T19:16:09.120Z,23.9
2022-12-05T19:21:17.902Z,23.5
2022-12-05T19:26:59.383Z,23.3
2022-12-05T19:32:40.827Z,23
2022-12-05T19:37:49.320Z,23.3
2022-12-05T19:43:28.364Z,24.7
2022-12-05T19:48:57.245Z,24.6
2022-12-05T19:54:36.064Z,23.9
2022-12-05T20:00:18.109Z,23.4
2022-12-05T20:05:45.558Z,23.1
2022-12-05T20:11:09.160Z,22.9
2022-12-05T20:17:04.905Z,24.4
2022-12-05T20:22:28.231Z,24.9
2022-12-05T20:28:07.069Z,23.9
2022-12-05T20:33:45.213Z,23.7
2022-12-05T20:39:11.150Z,23.2
2022-12-05T20:44:51.509Z,22.9
2022-12-05T20:50:30.025Z,23.9
2022-12-05T20:56:07.838Z,25.3
2022-12-05T21:01:46.401Z,23.3
2022-12-05T21:07:31.227Z,22.8
2022-12-05T21:13:11.712Z,22.9
2022-12-05T21:18:50.560Z,22.8
2022-12-05T21:24:28.697Z,22.7
2022-12-05T21:30:06.572Z,22.5
2022-12-05T21:35:29.834Z,22.4
2022-12-05T21:40:53.372Z,24
2022-12-05T21:46:12.768Z,24.1
2022-12-05T21:51:51.029Z,23.5
2022-12-05T21:57:28.976Z,23.5
2022-12-05T22:02:57.512Z,22.9
2022-12-05T22:08:40.575Z,23.8
2022-12-05T22:14:18.368Z,24.8
2022-12-05T22:19:57.252Z,25.3
2022-12-05T22:25:35.937Z,24.2
2022-12-05T22:31:16.219Z,23.6
2022-12-05T22:36:44.540Z,23.2
2022-12-05T22:42:22.558Z,22.9
2022-12-05T22:48:00.563Z,22.7
2022-12-05T22:53:39.760Z,23.9
2022-12-05T22:59:18.043Z,24.9
2022-12-05T23:04:56.810Z,25.3
2022-12-05T23:10:38.843Z,24.2
2022-12-05T23:16:17.635Z,23.5
2022-12-05T23:21:56.387Z,22.9
2022-12-05T23:27:34.346Z,22.9
2022-12-05T23:33:12.615Z,22.9
2022-12-05T23:38:52.211Z,24.4
2022-12-05T23:44:30.628Z,25.4
2022-12-05T23:50:10.466Z,25
2022-12-05T23:55:47.809Z,23.9
